createdAt,value
2018-06-05T00:01:15.085Z,12.47
2018-06-05T00:03:42.649Z,13.70
2018-06-05T00:06:10.261Z,12.50
2018-06-05T00:08:37.913Z,12.57
2018-06-05T00:11:05.518Z,13.37
2018-06-05T00:13:33.115Z,12.50
2018-06-05T00:16:00.696Z,12.50
2018-06-05T00:18:28.276Z,12.23
2018-06-05T00:20:55.942Z,14.00
2018-06-05T00:23:23.634Z,13.30
2018-06-05T00:25:51.187Z,13.30
2018-06-05T00:28:18.765Z,12.60
2018-06-05T00:30:46.570Z,14.43
2018-06-05T00:33:14.092Z,14.03
2018-06-05T00:35:41.657Z,14.60
2018-06-05T00:38:09.194Z,14.47
2018-06-05T00:40:36.818Z,15.63
2018-06-05T00:43:04.377Z,14.50
2018-06-05T00:45:31.932Z,15.30
2018-06-05T00:47:59.470Z,16.77
2018-06-05T00:50:27.181Z,17.00
2018-06-05T00:52:54.746Z,15.60
2018-06-05T00:55:22.287Z,14.03
2018-06-05T00:57:49.970Z,15.47
2018-06-05T01:00:17.653Z,15.20
2018-06-05T01:02:45.296Z,14.93
2018-06-05T01:05:12.920Z,16.10
2018-06-05T01:07:40.509Z,16.57
2018-06-05T01:10:08.009Z,17.03
2018-06-05T01:12:35.585Z,17.10
2018-06-05T01:15:03.378Z,17.07
2018-06-05T01:17:31.023Z,16.80
2018-06-05T01:19:58.627Z,17.50
2018-06-05T01:22:26.158Z,15.17
2018-06-05T01:24:53.918Z,17.50
2018-06-05T01:27:21.538Z,18.20
2018-06-05T01:29:49.100Z,16.80
2018-06-05T01:32:16.634Z,16.20
2018-06-05T01:34:44.260Z,17.13
2018-06-05T01:37:11.892Z,17.50
2018-06-05T01:39:39.479Z,17.97
2018-06-05T01:42:07.366Z,19.23
2018-06-05T01:44:34.953Z,18.10
2018-06-05T01:47:02.572Z,17.93
2018-06-05T01:49:36.028Z,17.80
2018-06-05T01:52:03.629Z,18.30
2018-06-05T01:54:31.199Z,18.20
2018-06-05T01:56:58.789Z,17.63
2018-06-05T01:59:26.369Z,19.53
2018-06-05T02:01:53.954Z,17.83
2018-06-05T02:04:22.317Z,18.30
2018-06-05T02:06:49.853Z,19.00
2018-06-05T02:09:17.403Z,18.53
2018-06-05T02:11:45.102Z,18.70
2018-06-05T02:14:12.696Z,19.63
2018-06-05T02:16:40.226Z,20.23
2018-06-05T02:19:07.835Z,18.07
2018-06-05T02:21:35.433Z,19.10
2018-06-05T02:24:03.068Z,19.90
2018-06-05T02:26:30.684Z,18.63
2018-06-05T02:28:58.223Z,19.10
2018-06-05T02:31:25.784Z,18.80
2018-06-05T02:33:53.382Z,19.37
2018-06-05T02:36:20.904Z,19.50
2018-06-05T02:38:48.506Z,20.80
2018-06-05T02:41:16.197Z,20.57
2018-06-05T02:43:43.785Z,21.00
2018-06-05T02:46:11.400Z,19.37
2018-06-05T02:48:39.009Z,20.23
2018-06-05T02:51:06.621Z,19.70
2018-06-05T02:53:34.212Z,20.97
2018-06-05T02:56:01.781Z,19.70
2018-06-05T02:58:29.374Z,21.17
2018-06-05T03:00:57.094Z,19.17
2018-06-05T03:03:24.889Z,21.07
2018-06-05T03:05:52.380Z,18.97
2018-06-05T03:08:19.962Z,19.20
2018-06-05T03:10:47.594Z,19.40
2018-06-05T03:13:15.104Z,21.43
2018-06-05T03:15:42.666Z,19.60
2018-06-05T03:18:10.286Z,21.03
2018-06-05T03:20:37.832Z,22.30
2018-06-05T03:23:05.840Z,21.60
2018-06-05T03:25:33.452Z,22.00
2018-06-05T03:28:01.012Z,22.40
2018-06-05T03:30:28.561Z,22.00
2018-06-05T03:32:56.178Z,21.50
2018-06-05T03:35:23.719Z,20.63
2018-06-05T03:37:51.223Z,19.67
2018-06-05T03:40:18.818Z,19.93
2018-06-05T03:42:46.396Z,21.80
2018-06-05T03:45:13.946Z,20.47
2018-06-05T03:47:41.506Z,20.87
2018-06-05T03:50:09.136Z,21.37
2018-06-05T03:52:36.670Z,22.40
2018-06-05T03:55:04.313Z,21.50
2018-06-05T03:57:31.881Z,21.87
2018-06-05T03:59:59.444Z,22.50
2018-06-05T04:02:27.056Z,20.70
2018-06-05T04:04:54.630Z,21.93
2018-06-05T04:07:22.249Z,21.90
2018-06-05T04:09:49.931Z,19.57
2018-06-05T04:12:17.492Z,18.90
2018-06-05T04:14:45.075Z,20.90
2018-06-05T04:17:12.759Z,20.63
2018-06-05T04:19:40.416Z,21.83
2018-06-05T04:22:08.363Z,21.13
2018-06-05T04:24:36.455Z,21.20
2018-06-05T04:27:04.193Z,21.57
2018-06-05T04:29:31.749Z,21.00
2018-06-05T04:31:59.348Z,20.73
2018-06-05T04:34:26.913Z,21.27
2018-06-05T04:36:54.712Z,21.20
2018-06-05T04:39:22.467Z,20.53
2018-06-05T04:41:50.017Z,21.07
2018-06-05T04:44:17.565Z,19.60
2018-06-05T04:46:45.159Z,20.23
2018-06-05T04:49:12.742Z,20.77
2018-06-05T04:51:40.645Z,19.70
2018-06-05T04:54:08.433Z,18.93
2018-06-05T04:56:36.003Z,19.23
2018-06-05T04:59:03.541Z,18.60
2018-06-05T05:01:31.131Z,18.77
2018-06-05T05:03:58.697Z,19.70
2018-06-05T05:06:26.281Z,19.70
2018-06-05T05:08:53.845Z,20.20
2018-06-05T05:11:21.392Z,21.03
2018-06-05T05:13:49.275Z,19.17
2018-06-05T05:16:16.925Z,18.90
2018-06-05T05:18:44.605Z,18.67
2018-06-05T05:21:12.185Z,19.00
2018-06-05T05:23:39.773Z,21.00
2018-06-05T05:26:07.369Z,19.47
2018-06-05T05:28:34.957Z,19.90
2018-06-05T05:31:02.565Z,18.07
2018-06-05T05:33:30.129Z,17.93
2018-06-05T05:35:57.668Z,21.00
2018-06-05T05:38:25.233Z,19.60
2018-06-05T05:40:52.781Z,19.10
2018-06-05T05:43:20.337Z,20.23
2018-06-05T05:45:47.949Z,18.63
2018-06-05T05:48:15.513Z,20.77
2018-06-05T05:50:43.031Z,19.73
2018-06-05T05:53:10.601Z,20.47
2018-06-05T05:55:38.258Z,18.83
2018-06-05T05:58:05.877Z,22.10
2018-06-05T06:00:33.580Z,19.20
2018-06-05T06:03:01.428Z,19.50
2018-06-05T06:05:28.972Z,21.63
2018-06-05T06:07:56.665Z,21.20
2018-06-05T06:10:24.227Z,19.10
2018-06-05T06:12:51.794Z,18.57
2018-06-05T06:15:19.500Z,20.37
2018-06-05T06:17:47.073Z,20.97
2018-06-05T06:20:14.962Z,20.30
2018-06-05T06:22:42.558Z,21.00
2018-06-05T06:25:10.170Z,19.17
2018-06-05T06:27:37.720Z,18.97
2018-06-05T06:30:05.352Z,19.90
2018-06-05T06:32:32.908Z,21.10
2018-06-05T06:35:00.450Z,22.30
2018-06-05T06:37:28.079Z,21.70
2018-06-05T06:39:55.626Z,21.70
2018-06-05T06:42:23.269Z,22.30
2018-06-05T06:44:50.868Z,22.73
2018-06-05T06:47:18.474Z,19.80
2018-06-05T06:49:46.036Z,19.03
2018-06-05T06:52:13.888Z,21.10
2018-06-05T06:54:41.562Z,22.00
2018-06-05T06:57:09.182Z,21.50
2018-06-05T06:59:36.750Z,19.73
2018-06-05T07:02:04.754Z,21.50
2018-06-05T07:04:32.363Z,20.97
2018-06-05T07:07:00.025Z,20.63
2018-06-05T07:09:27.597Z,19.30
2018-06-05T07:11:55.363Z,17.23
2018-06-05T07:14:23.054Z,16.27
2018-06-05T07:16:50.577Z,26.00
2018-06-05T07:19:18.129Z,17.73
2018-06-05T07:21:45.901Z,16.53
2018-06-05T07:24:13.715Z,17.07
2018-06-05T07:26:41.370Z,16.67
2018-06-05T07:29:08.971Z,16.50
2018-06-05T07:31:36.649Z,16.57
2018-06-05T07:34:04.452Z,15.83
2018-06-05T07:36:32.087Z,16.73
2018-06-05T07:38:59.627Z,16.60
2018-06-05T07:41:27.379Z,13.60
2018-06-05T07:43:54.951Z,16.57
2018-06-05T07:46:22.559Z,14.57
2018-06-05T07:48:50.174Z,15.50
2018-06-05T07:51:17.773Z,13.37
2018-06-05T07:53:45.331Z,12.80
2018-06-05T07:56:12.953Z,14.50
2018-06-05T07:58:40.541Z,14.23
2018-06-05T08:01:08.110Z,13.07
2018-06-05T08:03:35.665Z,14.70
2018-06-05T08:06:03.283Z,14.80
2018-06-05T08:08:30.853Z,13.30
2018-06-05T08:10:58.653Z,12.70
2018-06-05T08:13:26.375Z,13.60
2018-06-05T08:15:54.002Z,12.40
2018-06-05T08:18:21.641Z,14.93
2018-06-05T08:20:49.443Z,11.13
2018-06-05T08:23:17.046Z,12.57
2018-06-05T08:25:44.684Z,12.47
2018-06-05T08:28:12.277Z,12.70
2018-06-05T08:30:39.947Z,13.80
2018-06-05T08:33:07.573Z,11.33
2018-06-05T08:35:35.110Z,11.67
2018-06-05T08:38:02.732Z,13.93
2018-06-05T08:40:30.362Z,10.97
2018-06-05T08:42:58.065Z,11.33
2018-06-05T08:45:25.625Z,15.00
2018-06-05T08:47:53.286Z,10.60
2018-06-05T08:50:20.867Z,11.37
2018-06-05T08:52:48.469Z,13.10
2018-06-05T08:55:16.079Z,12.83
2018-06-05T08:57:43.677Z,13.43
2018-06-05T09:00:11.350Z,15.73
2018-06-05T09:02:39.174Z,14.10
2018-06-05T09:05:06.852Z,15.90
2018-06-05T09:07:34.616Z,16.53
2018-06-05T09:10:02.347Z,17.23
2018-06-05T09:12:29.976Z,15.50
2018-06-05T09:14:57.520Z,15.13
2018-06-05T09:17:25.233Z,16.00
2018-06-05T09:19:53.066Z,17.10
2018-06-05T09:22:20.725Z,16.50
2018-06-05T09:24:48.280Z,16.10
2018-06-05T09:27:15.990Z,15.50
2018-06-05T09:29:43.720Z,15.30
2018-06-05T09:32:11.310Z,17.53
2018-06-05T09:34:39.159Z,16.97
2018-06-05T09:37:06.910Z,16.20
2018-06-05T09:39:34.483Z,15.87
2018-06-05T09:42:02.106Z,14.87
2018-06-05T09:44:29.702Z,16.00
2018-06-05T09:46:57.346Z,17.00
2018-06-05T09:49:25.034Z,14.87
2018-06-05T09:51:52.654Z,13.60
2018-06-05T09:54:20.346Z,14.87
2018-06-05T09:56:47.956Z,14.30
2018-06-05T09:59:15.594Z,13.70
2018-06-05T10:01:43.132Z,14.73
2018-06-05T10:04:11.109Z,14.10
2018-06-05T10:06:38.900Z,13.93
2018-06-05T10:09:06.846Z,14.97
2018-06-05T10:11:43.340Z,13.93
2018-06-05T10:14:12.951Z,13.60
2018-06-05T10:16:41.819Z,15.87
2018-06-05T10:19:09.570Z,14.00
2018-06-05T10:21:37.156Z,13.80
2018-06-05T10:24:04.973Z,13.40
2018-06-05T10:26:32.772Z,13.50
2018-06-05T10:29:00.657Z,11.93
2018-06-05T10:31:28.444Z,13.93
2018-06-05T10:33:56.274Z,13.40
2018-06-05T10:36:23.865Z,12.90
2018-06-05T10:38:51.494Z,13.37
2018-06-05T10:41:19.179Z,15.47
2018-06-05T10:43:47.147Z,14.37
2018-06-05T10:46:14.727Z,12.70
2018-06-05T10:48:42.518Z,12.57
2018-06-05T10:51:10.169Z,14.10
2018-06-05T10:53:38.036Z,11.20
2018-06-05T10:56:05.729Z,11.20
2018-06-05T10:58:33.493Z,12.60
2018-06-05T11:01:01.066Z,12.00
2018-06-05T11:03:28.683Z,12.03
2018-06-05T11:05:56.213Z,15.93
2018-06-05T11:08:23.793Z,11.37
2018-06-05T11:10:51.767Z,12.17
2018-06-05T11:13:19.351Z,11.40
2018-06-05T11:15:47.006Z,9.77
2018-06-05T11:18:14.728Z,9.77
2018-06-05T11:20:42.393Z,9.97
2018-06-05T11:23:10.046Z,10.27
2018-06-05T11:25:37.680Z,9.97
2018-06-05T11:28:05.343Z,9.40
2018-06-05T11:30:33.004Z,11.27
2018-06-05T11:33:00.646Z,11.23
2018-06-05T11:35:28.318Z,9.97
2018-06-05T11:37:55.960Z,9.23
2018-06-05T11:40:23.619Z,9.50
2018-06-05T11:42:51.218Z,7.67
2018-06-05T11:45:18.886Z,11.50
2018-06-05T11:47:46.486Z,8.50
2018-06-05T11:50:14.126Z,7.80
2018-06-05T11:52:43.590Z,7.67
2018-06-05T11:55:11.178Z,7.73
2018-06-05T11:57:38.836Z,8.53
2018-06-05T12:00:06.494Z,8.80
2018-06-05T12:02:34.070Z,7.33
2018-06-05T12:05:01.714Z,5.90
2018-06-05T12:07:29.432Z,6.73
2018-06-05T12:09:57.044Z,9.23
2018-06-05T12:12:24.663Z,9.13
2018-06-05T12:14:52.350Z,4.93
2018-06-05T12:17:19.978Z,5.50
2018-06-05T12:19:47.688Z,4.60
2018-06-05T12:22:15.320Z,6.17
2018-06-05T12:24:42.930Z,5.80
2018-06-05T12:27:10.493Z,5.90
2018-06-05T12:29:38.038Z,4.97
2018-06-05T12:32:05.826Z,5.70
2018-06-05T12:34:33.438Z,6.10
2018-06-05T12:37:01.089Z,5.87
2018-06-05T12:39:28.848Z,6.00
2018-06-05T12:41:56.510Z,6.50
2018-06-05T12:44:24.252Z,4.90
2018-06-05T12:46:51.836Z,4.97
2018-06-05T12:49:19.398Z,5.60
2018-06-05T12:51:47.031Z,5.43
2018-06-05T12:54:14.668Z,4.90
2018-06-05T12:56:42.292Z,5.43
2018-06-05T12:59:09.916Z,5.80
2018-06-05T13:01:37.498Z,5.00
2018-06-05T13:04:05.188Z,6.00
2018-06-05T13:06:32.802Z,5.30
2018-06-05T13:09:00.373Z,5.83
2018-06-05T13:11:28.139Z,5.40
2018-06-05T13:13:55.772Z,4.93
2018-06-05T13:16:23.337Z,5.23
2018-06-05T13:18:50.924Z,5.70
2018-06-05T13:21:18.532Z,5.47
2018-06-05T13:23:46.116Z,5.80
2018-06-05T13:26:13.709Z,5.63
2018-06-05T13:28:41.356Z,6.10
2018-06-05T13:31:09.005Z,5.50
2018-06-05T13:33:36.590Z,5.13
2018-06-05T13:36:04.144Z,5.07
2018-06-05T13:38:31.747Z,5.23
2018-06-05T13:40:59.347Z,5.70
2018-06-05T13:43:26.986Z,5.77
2018-06-05T13:45:54.584Z,5.23
2018-06-05T13:48:22.162Z,5.43
2018-06-05T13:50:50.286Z,4.40
2018-06-05T13:53:17.969Z,4.50
2018-06-05T13:55:45.606Z,4.63
2018-06-05T13:58:13.293Z,4.60
2018-06-05T14:00:40.877Z,4.60
2018-06-05T14:03:08.523Z,4.60
2018-06-05T14:05:36.045Z,4.43
2018-06-05T14:08:03.810Z,4.37
2018-06-05T14:10:31.393Z,20.63
2018-06-05T14:12:59.687Z,3.93
2018-06-05T14:15:27.239Z,3.83
2018-06-05T14:17:54.837Z,6.93
2018-06-05T14:20:22.545Z,5.40
2018-06-05T14:22:50.038Z,4.50
2018-06-05T14:25:17.613Z,5.50
2018-06-05T14:27:45.193Z,5.03
2018-06-05T14:30:12.736Z,4.50
2018-06-05T14:32:40.333Z,4.63
2018-06-05T14:35:07.929Z,4.83
2018-06-05T14:37:35.538Z,4.30
2018-06-05T14:40:03.786Z,4.37
2018-06-05T14:42:31.406Z,5.10
2018-06-05T14:44:59.043Z,4.40
2018-06-05T14:47:26.572Z,4.60
2018-06-05T14:49:54.371Z,5.27
2018-06-05T14:52:21.955Z,5.07
2018-06-05T14:54:49.522Z,3.87
2018-06-05T14:57:17.156Z,4.33
2018-06-05T14:59:45.008Z,4.70
2018-06-05T15:02:12.683Z,4.37
2018-06-05T15:04:40.442Z,4.37
2018-06-05T15:07:08.016Z,5.77
2018-06-05T15:09:35.541Z,4.30
2018-06-05T15:12:03.178Z,4.57
2018-06-05T15:14:30.904Z,4.80
2018-06-05T15:16:58.490Z,5.13
2018-06-05T15:19:26.074Z,4.33
2018-06-05T15:21:53.705Z,4.10
2018-06-05T15:24:21.328Z,4.27
2018-06-05T15:26:48.928Z,4.13
2018-06-05T15:29:16.507Z,4.70
2018-06-05T15:31:44.186Z,5.00
2018-06-05T15:34:11.833Z,4.60
2018-06-05T15:36:39.553Z,4.33
2018-06-05T15:39:09.628Z,4.53
2018-06-05T15:41:38.523Z,4.13
2018-06-05T15:44:06.188Z,4.60
2018-06-05T15:46:33.739Z,4.90
2018-06-05T15:49:01.554Z,4.13
2018-06-05T15:51:29.124Z,4.47
2018-06-05T15:53:56.825Z,4.10
2018-06-05T15:56:24.462Z,4.27
2018-06-05T15:58:52.117Z,4.30
2018-06-05T16:01:19.939Z,4.80
2018-06-05T16:03:47.651Z,4.20
2018-06-05T16:06:15.291Z,3.90
2018-06-05T16:08:42.877Z,3.37
2018-06-05T16:11:10.677Z,3.90
2018-06-05T16:13:38.262Z,3.47
2018-06-05T16:16:05.866Z,4.47
2018-06-05T16:18:33.457Z,3.90
2018-06-05T16:21:01.037Z,3.93
2018-06-05T16:23:28.637Z,4.23
2018-06-05T16:25:56.293Z,4.17
2018-06-05T16:28:23.865Z,4.30
2018-06-05T16:30:51.445Z,3.80
2018-06-05T16:33:19.091Z,4.20
2018-06-05T16:35:46.565Z,4.30
2018-06-05T16:38:14.175Z,3.97
2018-06-05T16:40:41.913Z,6.00
2018-06-05T16:43:09.493Z,4.03
2018-06-05T16:45:37.093Z,3.57
2018-06-05T16:48:04.701Z,3.10
2018-06-05T16:50:32.271Z,3.90
2018-06-05T16:52:59.869Z,4.37
2018-06-05T16:55:27.525Z,4.87
2018-06-05T16:57:55.096Z,4.07
2018-06-05T17:00:22.713Z,3.70
2018-06-05T17:02:50.307Z,3.37
2018-06-05T17:05:17.929Z,3.50
2018-06-05T17:07:45.525Z,3.97
2018-06-05T17:10:13.153Z,4.67
2018-06-05T17:12:40.705Z,4.87
2018-06-05T17:15:08.285Z,4.67
2018-06-05T17:17:35.952Z,3.40
2018-06-05T17:20:03.565Z,4.10
2018-06-05T17:22:31.168Z,3.87
2018-06-05T17:24:58.739Z,4.20
2018-06-05T17:27:26.386Z,4.90
2018-06-05T17:29:53.868Z,4.47
2018-06-05T17:32:21.591Z,4.80
2018-06-05T17:34:49.205Z,4.60
2018-06-05T17:37:16.796Z,4.00
2018-06-05T17:39:44.626Z,4.40
2018-06-05T17:42:12.175Z,5.13
2018-06-05T17:44:39.750Z,5.33
2018-06-05T17:47:07.356Z,5.07
2018-06-05T17:49:34.950Z,5.27
2018-06-05T17:52:02.646Z,4.93
2018-06-05T17:54:30.297Z,5.60
2018-06-05T17:56:57.854Z,5.53
2018-06-05T17:59:25.499Z,5.70
2018-06-05T18:01:53.109Z,6.27
2018-06-05T18:04:20.710Z,8.13
2018-06-05T18:06:48.316Z,8.90
2018-06-05T18:09:15.877Z,7.77
2018-06-05T18:11:43.446Z,7.83
2018-06-05T18:14:11.019Z,8.47
2018-06-05T18:16:38.682Z,8.47
2018-06-05T18:19:06.244Z,8.83
2018-06-05T18:21:33.832Z,10.10
2018-06-05T18:24:01.590Z,11.10
2018-06-05T18:26:29.157Z,10.70
2018-06-05T18:28:56.690Z,10.80
2018-06-05T18:31:24.330Z,10.10
2018-06-05T18:33:51.870Z,9.00
2018-06-05T18:36:19.476Z,9.53
2018-06-05T18:38:47.100Z,9.57
2018-06-05T18:41:14.989Z,8.13
2018-06-05T18:43:42.625Z,9.20
2018-06-05T18:46:10.263Z,9.07
2018-06-05T18:48:37.884Z,8.97
2018-06-05T18:51:05.863Z,9.13
2018-06-05T18:53:33.508Z,8.50
2018-06-05T18:56:01.106Z,8.67
2018-06-05T18:58:29.054Z,9.30
2018-06-05T19:00:56.744Z,9.87
2018-06-05T19:03:24.540Z,10.83
2018-06-05T19:05:52.158Z,9.07
2018-06-05T19:08:19.741Z,9.50
2018-06-05T19:10:47.360Z,9.37
2018-06-05T19:13:14.988Z,9.63
2018-06-05T19:15:43.195Z,9.90
2018-06-05T19:20:45.223Z,9.30
2018-06-05T19:23:13.101Z,9.00
2018-06-05T19:25:40.703Z,8.87
2018-06-05T19:28:08.351Z,9.77
2018-06-05T19:30:36.035Z,12.80
2018-06-05T19:33:03.653Z,12.07
2018-06-05T19:35:31.278Z,8.83
2018-06-05T19:37:58.970Z,9.00
2018-06-05T19:40:26.597Z,9.60
2018-06-05T19:42:54.203Z,9.70
2018-06-05T19:45:21.779Z,9.80
2018-06-05T19:47:49.345Z,9.70
2018-06-05T19:50:17.004Z,10.00
2018-06-05T19:52:44.624Z,10.47
2018-06-05T19:55:15.309Z,10.83
2018-06-05T19:57:43.694Z,11.10
2018-06-05T20:00:11.428Z,11.30
2018-06-05T20:02:39.053Z,11.50
2018-06-05T20:05:06.751Z,11.30
2018-06-05T20:07:34.920Z,12.20
2018-06-05T20:10:02.548Z,13.37
2018-06-05T20:12:30.201Z,13.53
2018-06-05T20:14:57.772Z,11.93
2018-06-05T20:17:25.419Z,12.10
2018-06-05T20:19:53.014Z,13.30
2018-06-05T20:22:20.638Z,15.43
2018-06-05T20:24:49.072Z,12.63
2018-06-05T20:27:16.705Z,12.43
2018-06-05T20:29:44.254Z,13.77
2018-06-05T20:32:11.830Z,12.57
2018-06-05T20:34:39.490Z,13.83
2018-06-05T20:37:07.072Z,14.60
2018-06-05T20:39:34.839Z,13.87
2018-06-05T20:42:02.446Z,14.40
2018-06-05T20:44:30.030Z,14.47
2018-06-05T20:46:57.609Z,13.83
2018-06-05T20:49:25.230Z,15.40
2018-06-05T20:51:52.847Z,14.40
2018-06-05T20:54:20.523Z,15.37
2018-06-05T20:56:48.161Z,16.37
2018-06-05T20:59:15.849Z,15.83
2018-06-05T21:01:43.451Z,16.67
2018-06-05T21:04:11.097Z,15.10
2018-06-05T21:06:38.639Z,14.87
2018-06-05T21:09:06.653Z,16.33
2018-06-05T21:11:34.240Z,16.10
2018-06-05T21:14:01.887Z,15.40
2018-06-05T21:16:29.396Z,14.97
2018-06-05T21:18:56.989Z,15.87
2018-06-05T21:21:24.485Z,16.53
2018-06-05T21:23:52.041Z,17.07
2018-06-05T21:26:19.685Z,16.00
2018-06-05T21:28:47.339Z,15.30
2018-06-05T21:31:14.918Z,15.43
2018-06-05T21:33:42.525Z,14.70
2018-06-05T21:36:10.087Z,15.87
2018-06-05T21:38:37.717Z,15.70
2018-06-05T21:41:05.327Z,14.90
2018-06-05T21:43:32.934Z,15.37
2018-06-05T21:46:00.443Z,15.70
2018-06-05T21:48:28.015Z,16.07
2018-06-05T21:50:55.555Z,16.03
2018-06-05T21:53:23.081Z,15.67
2018-06-05T21:55:50.674Z,16.17
2018-06-05T21:58:18.209Z,16.17
2018-06-05T22:00:46.813Z,16.10
2018-06-05T22:03:14.366Z,14.60
2018-06-05T22:05:41.905Z,15.73
2018-06-05T22:08:09.494Z,15.20
2018-06-05T22:10:37.134Z,15.10
2018-06-05T22:13:04.670Z,15.37
2018-06-05T22:15:32.206Z,14.43
2018-06-05T22:17:59.786Z,14.90
2018-06-05T22:20:27.332Z,14.73
2018-06-05T22:22:54.890Z,15.53
2018-06-05T22:25:22.466Z,14.90
2018-06-05T22:27:50.006Z,14.23
2018-06-05T22:30:17.622Z,15.00
2018-06-05T22:32:45.146Z,15.17
2018-06-05T22:35:12.750Z,14.83
2018-06-05T22:37:40.294Z,14.00
2018-06-05T22:40:07.858Z,16.20
2018-06-05T22:42:35.496Z,15.83
2018-06-05T22:45:03.102Z,15.63
2018-06-05T22:47:30.658Z,14.20
2018-06-05T22:49:58.150Z,15.13
2018-06-05T22:52:25.704Z,14.30
2018-06-05T22:54:53.288Z,15.43
2018-06-05T22:57:20.826Z,14.13
2018-06-05T22:59:48.440Z,14.93
2018-06-05T23:02:16.154Z,14.03
2018-06-05T23:04:43.738Z,14.10
2018-06-05T23:07:11.266Z,15.20
2018-06-05T23:09:38.826Z,14.50
2018-06-05T23:12:06.360Z,14.00
2018-06-05T23:14:33.862Z,13.67
2018-06-05T23:17:01.431Z,14.87
2018-06-05T23:19:29.012Z,14.03
2018-06-05T23:21:56.570Z,13.93
2018-06-05T23:24:24.181Z,16.37
2018-06-05T23:26:51.739Z,14.17
2018-06-05T23:29:19.292Z,14.50
2018-06-05T23:31:46.858Z,13.93
2018-06-05T23:34:14.436Z,15.33
2018-06-05T23:36:42.044Z,16.00
2018-06-05T23:39:09.607Z,13.67
2018-06-05T23:41:37.186Z,15.27
2018-06-05T23:44:04.777Z,14.73
2018-06-05T23:46:32.393Z,15.37
2018-06-05T23:48:59.933Z,14.77
2018-06-05T23:51:27.523Z,15.27
2018-06-05T23:53:55.071Z,14.20
2018-06-05T23:56:22.626Z,14.20
2018-06-05T23:58:50.226Z,15.40
